createdAt,value
2018-11-26T00:13:06.796Z,83.60
2018-11-26T00:15:40.391Z,83.60
2018-11-26T00:18:14.009Z,84.20
2018-11-26T00:20:48.448Z,83.70
2018-11-26T00:23:22.144Z,84.20
2018-11-26T00:25:55.753Z,83.60
2018-11-26T00:28:29.310Z,83.70
2018-11-26T00:31:03.058Z,83.60
2018-11-26T00:33:36.721Z,83.50
2018-11-26T00:36:10.317Z,83.50
2018-11-26T00:38:44.051Z,83.50
2018-11-26T00:41:17.640Z,83.50
2018-11-26T00:43:51.586Z,83.50
2018-11-26T00:46:25.199Z,83.50
2018-11-26T00:48:58.838Z,83.60
2018-11-26T00:51:32.486Z,83.50
2018-11-26T00:54:06.081Z,83.50
2018-11-26T00:56:39.717Z,83.40
2018-11-26T00:59:13.410Z,83.50
2018-11-26T01:01:47.344Z,83.60
2018-11-26T01:04:20.976Z,83.60
2018-11-26T01:06:54.659Z,83.70
2018-11-26T01:09:28.251Z,83.70
2018-11-26T01:12:01.925Z,83.60
2018-11-26T01:14:35.496Z,83.50
2018-11-26T01:17:09.173Z,83.50
2018-11-26T01:19:43.049Z,83.50
2018-11-26T01:22:16.547Z,83.50
2018-11-26T01:24:50.406Z,83.50
2018-11-26T01:27:24.171Z,83.50
2018-11-26T01:29:57.933Z,83.40
2018-11-26T01:32:31.447Z,83.40
2018-11-26T01:35:06.346Z,83.50
2018-11-26T01:37:46.664Z,83.40
2018-11-26T01:40:21.769Z,84.20
2018-11-26T01:42:55.702Z,83.50
2018-11-26T01:45:29.271Z,83.50
2018-11-26T01:48:02.664Z,84.20
2018-11-26T01:50:36.597Z,83.50
2018-11-26T01:53:10.360Z,83.50
2018-11-26T01:55:44.033Z,83.50
2018-11-26T01:58:17.539Z,83.50
2018-11-26T02:00:51.289Z,83.60
2018-11-26T02:03:24.818Z,83.40
2018-11-26T02:05:58.495Z,83.30
2018-11-26T02:08:32.192Z,83.40
2018-11-26T02:11:06.536Z,83.40
2018-11-26T02:13:40.498Z,83.50
2018-11-26T02:16:14.199Z,83.40
2018-11-26T02:18:47.850Z,83.50
2018-11-26T02:21:21.662Z,83.50
2018-11-26T02:23:55.357Z,83.50
2018-11-26T02:26:29.117Z,83.50
2018-11-26T02:29:02.732Z,83.50
2018-11-26T02:31:36.583Z,83.50
2018-11-26T02:34:10.535Z,83.50
2018-11-26T02:36:44.158Z,83.50
2018-11-26T02:39:24.735Z,83.50
2018-11-26T02:41:58.860Z,83.50
2018-11-26T02:44:32.333Z,83.50
2018-11-26T02:47:06.335Z,83.40
2018-11-26T02:49:40.423Z,83.30
2018-11-26T02:52:14.649Z,83.40
2018-11-26T02:54:48.262Z,83.20
2018-11-26T02:57:22.054Z,83.30
2018-11-26T02:59:55.663Z,83.30
2018-11-26T03:02:29.820Z,83.30
2018-11-26T03:05:04.511Z,83.40
2018-11-26T03:07:38.553Z,83.40
2018-11-26T03:10:12.150Z,83.30
2018-11-26T03:12:45.754Z,83.40
2018-11-26T03:15:19.500Z,83.30
2018-11-26T03:17:53.023Z,82.80
2018-11-26T03:20:26.831Z,83.40
2018-11-26T03:23:00.754Z,83.40
2018-11-26T03:25:34.540Z,83.30
2018-11-26T03:28:08.055Z,83.20
2018-11-26T03:30:41.618Z,83.20
2018-11-26T03:33:15.309Z,83.20
2018-11-26T03:35:48.855Z,83.20
2018-11-26T03:38:34.444Z,83.10
2018-11-26T03:41:08.430Z,83.20
2018-11-26T03:43:42.333Z,83.10
2018-11-26T03:46:16.072Z,83.60
2018-11-26T03:48:49.725Z,83.30
2018-11-26T03:51:23.419Z,83.20
2018-11-26T03:53:57.722Z,83.20
2018-11-26T03:56:31.996Z,83.20
2018-11-26T03:59:05.871Z,83.00
2018-11-26T04:01:39.432Z,83.00
2018-11-26T04:04:12.922Z,83.10
2018-11-26T04:06:46.743Z,83.00
2018-11-26T04:09:20.187Z,83.10
2018-11-26T04:11:54.256Z,83.00
2018-11-26T04:14:28.494Z,83.00
2018-11-26T04:17:04.694Z,83.00
2018-11-26T04:19:39.024Z,83.10
2018-11-26T04:22:12.574Z,83.10
2018-11-26T04:24:46.572Z,82.90
2018-11-26T04:27:20.127Z,82.90
2018-11-26T04:29:53.764Z,82.90
2018-11-26T04:32:27.328Z,82.80
2018-11-26T04:35:00.910Z,82.90
2018-11-26T04:37:34.750Z,83.00
2018-11-26T04:40:09.825Z,83.00
2018-11-26T04:42:44.081Z,82.80
2018-11-26T04:45:17.687Z,82.70
2018-11-26T04:47:51.221Z,83.10
2018-11-26T04:50:25.959Z,82.80
2018-11-26T04:52:59.526Z,82.80
2018-11-26T04:55:33.053Z,82.80
2018-11-26T04:58:06.817Z,82.80
2018-11-26T05:00:40.481Z,82.90
2018-11-26T05:03:14.425Z,82.80
2018-11-26T05:05:48.040Z,82.80
2018-11-26T05:08:21.482Z,82.80
2018-11-26T05:10:55.179Z,82.80
2018-11-26T05:13:28.776Z,82.70
2018-11-26T05:16:02.809Z,82.80
2018-11-26T05:18:36.455Z,82.80
2018-11-26T05:21:10.254Z,82.60
2018-11-26T05:23:43.733Z,82.70
2018-11-26T05:26:17.636Z,83.40
2018-11-26T05:28:51.253Z,82.70
2018-11-26T05:31:24.759Z,82.70
2018-11-26T05:33:58.389Z,82.50
2018-11-26T05:36:32.296Z,82.60
2018-11-26T05:39:07.407Z,82.50
2018-11-26T05:41:40.882Z,82.50
2018-11-26T05:44:14.442Z,82.40
2018-11-26T05:46:48.029Z,82.40
2018-11-26T05:49:22.361Z,82.30
2018-11-26T05:51:55.350Z,82.30
2018-11-26T05:54:29.109Z,82.40
2018-11-26T05:57:02.558Z,82.50
2018-11-26T05:59:36.033Z,82.40
2018-11-26T06:02:09.818Z,82.40
2018-11-26T06:04:43.478Z,82.20
2018-11-26T06:07:17.182Z,82.40
2018-11-26T06:09:51.569Z,82.40
2018-11-26T06:12:25.465Z,82.30
2018-11-26T06:14:59.250Z,82.30
2018-11-26T06:17:33.019Z,82.40
2018-11-26T06:20:10.005Z,82.20
2018-11-26T06:22:44.825Z,82.20
2018-11-26T06:25:19.455Z,82.10
2018-11-26T06:27:52.894Z,82.30
2018-11-26T06:30:26.494Z,82.30
2018-11-26T06:33:00.260Z,82.30
2018-11-26T06:35:34.383Z,82.30
2018-11-26T06:38:08.130Z,82.20
2018-11-26T06:40:42.298Z,82.30
2018-11-26T06:43:17.427Z,82.20
2018-11-26T06:45:50.347Z,82.00
2018-11-26T06:48:24.142Z,81.80
2018-11-26T06:50:57.846Z,82.00
2018-11-26T06:53:31.524Z,81.90
2018-11-26T06:56:05.441Z,82.10
2018-11-26T06:58:38.784Z,82.10
2018-11-26T07:01:12.454Z,82.10
2018-11-26T07:03:46.185Z,82.00
2018-11-26T07:06:19.874Z,82.10
2018-11-26T07:08:53.606Z,82.10
2018-11-26T07:11:27.037Z,82.00
2018-11-26T07:14:00.942Z,81.80
2018-11-26T07:16:34.710Z,82.00
2018-11-26T07:19:08.218Z,81.50
2018-11-26T07:21:42.054Z,81.70
2018-11-26T07:24:16.836Z,81.70
2018-11-26T07:26:51.133Z,81.80
2018-11-26T07:29:24.750Z,81.70
2018-11-26T07:31:58.641Z,81.70
2018-11-26T07:34:32.173Z,81.70
2018-11-26T07:37:05.869Z,82.30
2018-11-26T07:39:39.546Z,81.40
